createdAt,value
2018-06-10T00:00:58.536Z,0.00
2018-06-10T00:01:58.561Z,0.00
2018-06-10T00:02:58.585Z,0.00
2018-06-10T00:03:58.610Z,0.00
2018-06-10T00:04:58.633Z,0.00
2018-06-10T00:05:58.660Z,0.00
2018-06-10T00:06:58.686Z,0.00
2018-06-10T00:07:58.711Z,0.00
2018-06-10T00:08:58.734Z,0.00
2018-06-10T00:09:58.756Z,0.00
2018-06-10T00:10:58.780Z,0.00
2018-06-10T00:11:58.805Z,0.00
2018-06-10T00:12:58.832Z,0.00
2018-06-10T00:13:58.856Z,0.00
2018-06-10T00:14:58.882Z,0.00
2018-06-10T00:15:58.906Z,0.00
2018-06-10T00:16:58.928Z,0.00
2018-06-10T00:17:58.955Z,0.00
2018-06-10T00:18:58.978Z,0.00
2018-06-10T00:19:59.006Z,0.00
2018-06-10T00:20:59.030Z,0.00
2018-06-10T00:21:59.051Z,0.00
2018-06-10T00:22:59.076Z,0.00
2018-06-10T00:23:59.101Z,0.00
2018-06-10T00:24:59.129Z,0.00
2018-06-10T00:25:59.149Z,0.00
2018-06-10T00:26:59.175Z,0.00
2018-06-10T00:27:59.206Z,0.00
2018-06-10T00:28:59.225Z,0.00
2018-06-10T00:29:59.247Z,0.00
2018-06-10T00:30:59.282Z,0.00
2018-06-10T00:31:59.296Z,0.00
2018-06-10T00:32:59.321Z,0.00
2018-06-10T00:33:59.345Z,0.00
2018-06-10T00:34:59.372Z,0.00
2018-06-10T00:35:59.397Z,0.00
2018-06-10T00:36:59.421Z,0.00
2018-06-10T00:37:59.455Z,0.00
2018-06-10T00:38:59.467Z,0.00
2018-06-10T00:39:59.491Z,0.00
2018-06-10T00:40:59.517Z,0.00
2018-06-10T00:41:59.540Z,0.00
2018-06-10T00:42:59.567Z,0.00
2018-06-10T00:43:59.591Z,0.00
2018-06-10T00:44:59.615Z,0.00
2018-06-10T00:45:59.637Z,0.00
2018-06-10T00:46:59.664Z,0.00
2018-06-10T00:47:59.684Z,0.00
2018-06-10T00:48:59.709Z,0.00
2018-06-10T00:49:59.734Z,0.00
2018-06-10T00:50:59.757Z,0.00
2018-06-10T00:51:59.784Z,0.00
2018-06-10T00:52:59.805Z,0.00
2018-06-10T00:53:59.833Z,0.00
2018-06-10T00:54:59.854Z,0.00
2018-06-10T00:55:59.881Z,0.00
2018-06-10T00:56:59.905Z,0.00
2018-06-10T00:57:59.929Z,0.00
2018-06-10T00:58:59.950Z,0.00
2018-06-10T00:59:59.974Z,0.00
2018-06-10T01:00:59.999Z,0.00
2018-06-10T01:02:00.028Z,0.00
2018-06-10T01:03:00.051Z,0.00
2018-06-10T01:04:00.070Z,0.00
2018-06-10T01:05:00.099Z,0.00
2018-06-10T01:06:00.120Z,0.00
2018-06-10T01:07:00.148Z,0.00
2018-06-10T01:08:00.168Z,0.00
2018-06-10T01:09:00.219Z,0.00
2018-06-10T01:10:00.220Z,0.00
2018-06-10T01:11:00.241Z,0.00
2018-06-10T01:12:00.264Z,0.00
2018-06-10T01:13:00.292Z,0.00
2018-06-10T01:14:00.313Z,0.00
2018-06-10T01:15:00.337Z,0.00
2018-06-10T01:16:00.360Z,0.00
2018-06-10T01:17:00.385Z,0.00
2018-06-10T01:18:00.407Z,0.00
2018-06-10T01:19:00.433Z,0.00
2018-06-10T01:20:00.453Z,0.00
2018-06-10T01:21:00.478Z,0.00
2018-06-10T01:22:00.503Z,0.00
2018-06-10T01:23:00.528Z,0.00
2018-06-10T01:24:00.549Z,0.00
2018-06-10T01:25:00.573Z,0.00
2018-06-10T01:26:00.598Z,0.00
2018-06-10T01:27:00.621Z,0.00
2018-06-10T01:28:00.647Z,0.00
2018-06-10T01:29:00.672Z,0.00
2018-06-10T01:30:00.694Z,0.00
2018-06-10T01:31:00.719Z,0.00
2018-06-10T01:32:00.740Z,0.00
2018-06-10T01:33:00.766Z,0.00
2018-06-10T01:34:00.792Z,0.00
2018-06-10T01:35:00.817Z,0.00
2018-06-10T01:36:00.839Z,0.00
2018-06-10T01:37:00.860Z,0.00
2018-06-10T01:38:00.884Z,0.00
2018-06-10T01:39:00.909Z,0.00
2018-06-10T01:40:00.929Z,0.00
2018-06-10T01:41:00.956Z,0.00
2018-06-10T01:42:00.982Z,0.00
2018-06-10T01:43:01.007Z,0.00
2018-06-10T01:44:01.027Z,0.00
2018-06-10T01:45:01.051Z,0.00
2018-06-10T01:46:01.074Z,0.00
2018-06-10T01:47:01.102Z,0.00
2018-06-10T01:48:01.122Z,0.00
2018-06-10T01:49:01.148Z,0.00
2018-06-10T01:50:01.173Z,0.00
2018-06-10T01:51:01.201Z,0.00
2018-06-10T01:52:01.218Z,0.00
2018-06-10T01:53:01.244Z,0.00
2018-06-10T01:54:01.266Z,0.00
2018-06-10T01:55:01.289Z,0.00
2018-06-10T01:56:01.311Z,0.00
2018-06-10T01:57:01.336Z,0.00
2018-06-10T01:58:01.364Z,0.00
2018-06-10T01:59:01.387Z,0.00
2018-06-10T02:00:01.410Z,0.00
2018-06-10T02:01:01.434Z,0.00
2018-06-10T02:02:01.458Z,0.00
2018-06-10T02:03:01.482Z,0.00
2018-06-10T02:04:01.504Z,0.00
2018-06-10T02:05:01.528Z,0.00
2018-06-10T02:06:01.550Z,0.00
2018-06-10T02:07:01.577Z,0.00
2018-06-10T02:08:01.598Z,0.00
2018-06-10T02:09:01.623Z,0.00
2018-06-10T02:10:01.646Z,0.00
2018-06-10T02:11:01.672Z,0.00
2018-06-10T02:12:01.692Z,0.00
2018-06-10T02:13:01.721Z,0.00
2018-06-10T02:14:01.744Z,0.00
2018-06-10T02:15:01.764Z,0.00
2018-06-10T02:16:01.790Z,0.00
2018-06-10T02:17:01.815Z,0.00
2018-06-10T02:18:01.837Z,0.00
2018-06-10T02:19:01.861Z,0.00
2018-06-10T02:20:01.885Z,0.00
2018-06-10T02:21:01.909Z,0.00
2018-06-10T02:22:01.935Z,0.00
2018-06-10T02:23:01.956Z,0.00
2018-06-10T02:24:01.977Z,0.00
2018-06-10T02:25:02.005Z,0.00
2018-06-10T02:26:02.032Z,0.00
2018-06-10T02:27:02.052Z,0.00
2018-06-10T02:28:02.075Z,0.00
2018-06-10T02:29:02.099Z,0.00
2018-06-10T02:30:02.124Z,0.00
2018-06-10T02:31:02.145Z,0.00
2018-06-10T02:32:02.168Z,0.00
2018-06-10T02:33:02.193Z,0.00
2018-06-10T02:34:02.217Z,0.00
2018-06-10T02:35:02.241Z,0.00
2018-06-10T02:36:02.269Z,0.00
2018-06-10T02:37:02.291Z,0.00
2018-06-10T02:38:02.311Z,0.00
2018-06-10T02:39:02.336Z,0.00
2018-06-10T02:40:02.359Z,0.00
2018-06-10T02:41:02.382Z,0.00
2018-06-10T02:42:02.409Z,0.00
2018-06-10T02:43:02.433Z,0.00
2018-06-10T02:44:02.455Z,0.00
2018-06-10T02:45:02.481Z,0.00
2018-06-10T02:46:02.505Z,0.00
2018-06-10T02:47:02.527Z,0.00
2018-06-10T02:48:02.551Z,0.00
2018-06-10T02:49:02.573Z,0.00
2018-06-10T02:50:02.598Z,0.00
2018-06-10T02:51:02.621Z,0.00
2018-06-10T02:52:02.647Z,0.00
2018-06-10T02:53:02.668Z,0.00
2018-06-10T02:54:02.695Z,0.00
2018-06-10T02:55:02.716Z,0.00
2018-06-10T02:56:02.748Z,0.00
2018-06-10T02:57:02.763Z,0.00
2018-06-10T02:58:02.787Z,0.00
2018-06-10T02:59:02.814Z,0.00
2018-06-10T03:00:02.834Z,0.00
2018-06-10T03:01:02.859Z,0.00
2018-06-10T03:02:02.882Z,0.00
2018-06-10T03:03:02.909Z,0.00
2018-06-10T03:04:02.930Z,0.00
2018-06-10T03:05:02.952Z,0.00
2018-06-10T03:06:02.977Z,0.00
2018-06-10T03:07:03.005Z,0.00
2018-06-10T03:08:03.027Z,0.00
2018-06-10T03:09:03.046Z,0.00
2018-06-10T03:10:03.070Z,0.00
2018-06-10T03:11:03.094Z,0.00
2018-06-10T03:12:03.119Z,0.00
2018-06-10T03:13:03.143Z,0.00
2018-06-10T03:14:03.164Z,0.00
2018-06-10T03:15:03.192Z,0.00
2018-06-10T03:16:03.210Z,0.00
2018-06-10T03:17:03.238Z,0.00
2018-06-10T03:18:03.261Z,0.00
2018-06-10T03:19:03.283Z,0.00
2018-06-10T03:20:03.304Z,0.00
2018-06-10T03:21:03.329Z,0.00
2018-06-10T03:22:03.355Z,0.00
2018-06-10T03:23:03.374Z,0.00
2018-06-10T03:24:03.397Z,0.00
2018-06-10T03:25:03.424Z,0.00
2018-06-10T03:26:03.445Z,0.00
2018-06-10T03:27:03.469Z,0.00
2018-06-10T03:28:03.495Z,0.00
2018-06-10T03:29:03.515Z,0.00
2018-06-10T03:30:03.543Z,0.00
2018-06-10T03:31:03.565Z,0.00
2018-06-10T03:32:03.586Z,0.00
2018-06-10T03:33:03.610Z,0.00
2018-06-10T03:34:03.635Z,0.00
2018-06-10T03:35:03.659Z,0.00
2018-06-10T03:36:03.680Z,0.00
2018-06-10T03:37:03.703Z,0.00
2018-06-10T03:38:03.730Z,0.00
2018-06-10T03:39:03.751Z,0.00
2018-06-10T03:40:03.776Z,0.00
2018-06-10T03:41:03.798Z,0.00
2018-06-10T03:42:03.824Z,0.00
2018-06-10T03:43:03.845Z,0.00
2018-06-10T03:44:03.869Z,0.00
2018-06-10T03:45:03.896Z,0.00
2018-06-10T03:46:03.918Z,0.00
2018-06-10T03:47:03.939Z,0.00
2018-06-10T03:48:03.962Z,0.00
2018-06-10T03:49:03.985Z,0.00
2018-06-10T03:50:04.011Z,0.00
2018-06-10T03:51:04.037Z,0.00
2018-06-10T03:52:04.055Z,0.00
2018-06-10T03:53:04.082Z,0.00
2018-06-10T03:54:04.106Z,0.00
2018-06-10T03:55:04.130Z,0.00
2018-06-10T03:56:04.153Z,0.00
2018-06-10T03:57:04.176Z,0.00
2018-06-10T03:58:04.201Z,0.00
2018-06-10T03:59:04.224Z,0.00
2018-06-10T04:00:04.246Z,0.00
2018-06-10T04:01:04.268Z,0.00
2018-06-10T04:02:04.294Z,0.00
2018-06-10T04:03:04.315Z,0.00
2018-06-10T04:04:04.340Z,0.00
2018-06-10T04:05:04.363Z,0.00
2018-06-10T04:06:04.393Z,0.00
2018-06-10T04:07:04.408Z,0.00
2018-06-10T04:08:04.435Z,5.63
2018-06-10T04:09:04.455Z,5.63
2018-06-10T04:10:04.481Z,5.63
2018-06-10T04:11:04.502Z,5.63
2018-06-10T04:12:04.526Z,5.63
2018-06-10T04:13:04.556Z,5.63
2018-06-10T04:14:04.572Z,5.63
2018-06-10T04:15:04.598Z,5.63
2018-06-10T04:16:04.622Z,5.63
2018-06-10T04:17:04.644Z,5.63
2018-06-10T04:18:04.670Z,5.63
2018-06-10T04:19:04.693Z,5.63
2018-06-10T04:20:04.713Z,5.63
2018-06-10T04:21:04.737Z,5.63
2018-06-10T04:22:04.762Z,5.63
2018-06-10T04:23:04.787Z,5.63
2018-06-10T04:24:04.809Z,5.63
2018-06-10T04:25:04.834Z,5.63
2018-06-10T04:26:04.855Z,5.63
2018-06-10T04:27:04.881Z,11.25
2018-06-10T04:28:04.904Z,11.25
2018-06-10T04:29:04.930Z,11.25
2018-06-10T04:30:04.949Z,11.25
2018-06-10T04:31:04.974Z,11.25
2018-06-10T04:32:04.995Z,11.25
2018-06-10T04:33:05.019Z,11.25
2018-06-10T04:34:05.042Z,11.25
2018-06-10T04:35:05.066Z,16.88
2018-06-10T04:36:05.092Z,16.88
2018-06-10T04:37:05.112Z,16.88
2018-06-10T04:38:05.137Z,16.88
2018-06-10T04:39:05.165Z,16.88
2018-06-10T04:40:05.186Z,16.88
2018-06-10T04:41:05.207Z,16.88
2018-06-10T04:42:05.231Z,22.50
2018-06-10T04:43:05.255Z,22.50
2018-06-10T04:44:05.276Z,22.50
2018-06-10T04:45:05.303Z,22.50
2018-06-10T04:46:05.324Z,22.50
2018-06-10T04:47:05.358Z,22.50
2018-06-10T04:48:05.370Z,22.50
2018-06-10T04:49:05.396Z,22.50
2018-06-10T04:50:05.418Z,28.13
2018-06-10T04:51:05.444Z,28.13
2018-06-10T04:52:05.467Z,28.13
2018-06-10T04:53:05.548Z,28.13
2018-06-10T04:54:05.513Z,28.13
2018-06-10T04:55:05.586Z,28.13
2018-06-10T04:56:05.561Z,28.13
2018-06-10T04:57:05.584Z,28.13
2018-06-10T04:58:05.605Z,28.13
2018-06-10T04:59:05.644Z,22.50
2018-06-10T05:00:05.655Z,22.50
2018-06-10T05:01:05.675Z,28.13
2018-06-10T05:02:05.706Z,28.13
2018-06-10T05:03:05.722Z,28.13
2018-06-10T05:04:05.749Z,28.13
2018-06-10T05:05:05.772Z,28.13
2018-06-10T05:06:05.793Z,28.13
2018-06-10T05:07:05.817Z,28.13
2018-06-10T05:08:05.841Z,39.38
2018-06-10T05:09:05.863Z,39.38
2018-06-10T05:10:05.890Z,39.38
2018-06-10T05:11:05.911Z,39.38
2018-06-10T05:12:05.934Z,39.38
2018-06-10T05:13:05.960Z,39.38
2018-06-10T05:14:05.983Z,39.38
2018-06-10T05:15:06.008Z,39.38
2018-06-10T05:16:06.029Z,39.38
2018-06-10T05:17:06.051Z,39.38
2018-06-10T05:18:06.078Z,39.38
2018-06-10T05:19:06.100Z,39.38
2018-06-10T05:20:06.132Z,33.75
2018-06-10T05:21:06.149Z,33.75
2018-06-10T05:22:06.169Z,33.75
2018-06-10T05:23:06.196Z,33.75
2018-06-10T05:24:06.219Z,39.38
2018-06-10T05:25:06.239Z,39.38
2018-06-10T05:26:06.266Z,39.38
2018-06-10T05:27:06.290Z,39.38
2018-06-10T05:28:06.310Z,39.38
2018-06-10T05:29:06.338Z,39.38
2018-06-10T05:30:06.366Z,39.38
2018-06-10T05:31:06.395Z,39.38
2018-06-10T05:32:06.407Z,45.00
2018-06-10T05:33:06.427Z,45.00
2018-06-10T05:34:06.452Z,45.00
2018-06-10T05:35:06.479Z,45.00
2018-06-10T05:36:06.501Z,45.00
2018-06-10T05:37:06.524Z,45.00
2018-06-10T05:38:06.549Z,45.00
2018-06-10T05:39:06.572Z,50.63
2018-06-10T05:40:06.640Z,50.63
2018-06-10T05:41:06.618Z,50.63
2018-06-10T05:42:06.653Z,50.63
2018-06-10T05:43:06.664Z,50.63
2018-06-10T05:44:06.693Z,50.63
2018-06-10T05:45:06.811Z,50.63
2018-06-10T05:46:06.735Z,50.63
2018-06-10T05:47:06.761Z,50.63
2018-06-10T05:48:06.786Z,50.63
2018-06-10T05:49:06.806Z,50.63
2018-06-10T05:50:06.832Z,50.63
2018-06-10T05:51:06.859Z,50.63
2018-06-10T05:52:06.877Z,50.63
2018-06-10T05:53:06.948Z,50.63
2018-06-10T05:54:06.925Z,45.00
2018-06-10T05:55:06.949Z,45.00
2018-06-10T05:56:06.972Z,45.00
2018-06-10T05:57:06.999Z,45.00
2018-06-10T05:58:07.024Z,45.00
2018-06-10T05:59:07.047Z,45.00
2018-06-10T06:00:07.067Z,45.00
2018-06-10T06:01:07.094Z,45.00
2018-06-10T06:02:07.118Z,45.00
2018-06-10T06:03:07.140Z,45.00
2018-06-10T06:04:07.164Z,50.63
2018-06-10T06:05:07.193Z,50.63
2018-06-10T06:06:07.210Z,50.63
2018-06-10T06:07:07.237Z,50.63
2018-06-10T06:08:07.261Z,50.63
2018-06-10T06:09:07.290Z,56.25
2018-06-10T06:10:07.310Z,56.25
2018-06-10T06:11:07.346Z,50.63
2018-06-10T06:12:07.359Z,50.63
2018-06-10T06:13:07.378Z,50.63
2018-06-10T06:14:07.402Z,50.63
2018-06-10T06:15:07.426Z,50.63
2018-06-10T06:16:07.449Z,50.63
2018-06-10T06:17:07.476Z,50.63
2018-06-10T06:18:07.499Z,50.63
2018-06-10T06:19:07.524Z,50.63
2018-06-10T06:20:07.548Z,50.63
2018-06-10T06:21:07.571Z,45.00
2018-06-10T06:22:07.593Z,45.00
2018-06-10T06:23:07.621Z,45.00
2018-06-10T06:24:07.642Z,39.38
2018-06-10T06:25:07.664Z,39.38
2018-06-10T06:26:07.688Z,39.38
2018-06-10T06:27:07.714Z,39.38
2018-06-10T06:28:07.735Z,39.38
2018-06-10T06:29:07.762Z,39.38
2018-06-10T06:30:07.786Z,39.38
2018-06-10T06:31:07.808Z,39.38
2018-06-10T06:32:07.834Z,45.00
2018-06-10T06:33:07.856Z,45.00
2018-06-10T06:34:07.878Z,45.00
2018-06-10T06:35:07.906Z,45.00
2018-06-10T06:36:07.927Z,50.63
2018-06-10T06:37:07.952Z,50.63
2018-06-10T06:38:07.974Z,50.63
2018-06-10T06:39:07.997Z,50.63
2018-06-10T06:40:08.021Z,50.63
2018-06-10T06:41:08.044Z,50.63
2018-06-10T06:42:08.084Z,56.25
2018-06-10T06:43:08.096Z,56.25
2018-06-10T06:44:08.119Z,56.25
2018-06-10T06:45:08.139Z,61.88
2018-06-10T06:46:08.167Z,61.88
2018-06-10T06:47:08.230Z,67.50
2018-06-10T06:48:08.214Z,67.50
2018-06-10T06:49:08.237Z,67.50
2018-06-10T06:50:08.260Z,73.13
2018-06-10T06:51:08.283Z,73.13
2018-06-10T06:52:08.306Z,73.13
2018-06-10T06:53:08.329Z,78.75
2018-06-10T06:54:08.361Z,78.75
2018-06-10T06:55:08.377Z,78.75
2018-06-10T06:56:08.402Z,84.38
2018-06-10T06:57:08.427Z,90.00
2018-06-10T06:58:08.449Z,95.63
2018-06-10T06:59:08.471Z,101.25
2018-06-10T07:00:08.497Z,106.88
2018-06-10T07:01:08.520Z,112.50
2018-06-10T07:02:08.546Z,112.50
2018-06-10T07:03:08.570Z,118.13
2018-06-10T07:04:08.594Z,118.13
2018-06-10T07:05:08.616Z,123.75
2018-06-10T07:06:08.638Z,123.75
2018-06-10T07:07:08.663Z,129.38
2018-06-10T07:08:08.688Z,135.00
2018-06-10T07:09:08.713Z,129.38
2018-06-10T07:10:08.734Z,129.38
2018-06-10T07:11:08.759Z,129.38
2018-06-10T07:12:08.785Z,140.63
2018-06-10T07:13:08.809Z,140.63
2018-06-10T07:14:08.833Z,135.00
2018-06-10T07:15:08.855Z,135.00
2018-06-10T07:16:08.881Z,135.00
2018-06-10T07:17:08.904Z,140.63
2018-06-10T07:18:08.926Z,146.25
2018-06-10T07:19:08.953Z,151.88
2018-06-10T07:20:09.067Z,157.50
2018-06-10T07:21:09.002Z,151.88
2018-06-10T07:22:09.023Z,151.88
2018-06-10T07:23:09.049Z,157.50
2018-06-10T07:24:09.071Z,157.50
2018-06-10T07:25:09.096Z,157.50
2018-06-10T07:26:09.121Z,157.50
2018-06-10T07:27:09.149Z,157.50
2018-06-10T07:28:09.169Z,157.50
2018-06-10T07:29:09.194Z,146.25
2018-06-10T07:30:09.222Z,151.88
2018-06-10T07:31:09.244Z,146.25
2018-06-10T07:32:09.269Z,146.25
2018-06-10T07:33:09.293Z,157.50
2018-06-10T07:34:09.321Z,157.50
2018-06-10T07:35:09.343Z,157.50
2018-06-10T07:36:09.369Z,168.75
2018-06-10T07:37:09.396Z,168.75
2018-06-10T07:38:09.418Z,168.75
2018-06-10T07:39:09.446Z,168.75
2018-06-10T07:40:09.472Z,174.38
2018-06-10T07:41:09.488Z,168.75
2018-06-10T07:42:09.517Z,163.13
2018-06-10T07:43:09.539Z,157.50
2018-06-10T07:44:09.567Z,163.13
2018-06-10T07:45:09.590Z,163.13
2018-06-10T07:46:09.612Z,163.13
2018-06-10T07:47:09.640Z,163.13
2018-06-10T07:48:09.664Z,163.13
2018-06-10T07:49:09.686Z,163.13
2018-06-10T07:50:09.712Z,163.13
2018-06-10T07:51:09.739Z,163.13
2018-06-10T07:52:09.763Z,168.75
2018-06-10T07:53:09.792Z,163.13
2018-06-10T07:54:09.809Z,174.38
2018-06-10T07:55:09.834Z,191.25
2018-06-10T07:56:09.908Z,191.25
2018-06-10T07:57:09.886Z,191.25
2018-06-10T07:58:09.911Z,191.25
2018-06-10T07:59:09.937Z,185.63
2018-06-10T08:00:10.061Z,196.88
2018-06-10T08:01:09.985Z,208.13
2018-06-10T08:02:10.012Z,219.38
2018-06-10T08:03:10.036Z,219.38
2018-06-10T08:04:10.059Z,213.75
2018-06-10T08:05:10.086Z,219.38
2018-06-10T08:06:10.112Z,213.75
2018-06-10T08:07:10.134Z,219.38
2018-06-10T08:08:10.159Z,225.00
2018-06-10T08:09:10.184Z,236.25
2018-06-10T08:10:10.213Z,230.63
2018-06-10T08:11:10.238Z,241.88
2018-06-10T08:12:10.260Z,247.50
2018-06-10T08:13:10.286Z,264.38
2018-06-10T08:14:10.314Z,270.00
2018-06-10T08:15:10.337Z,264.38
2018-06-10T08:16:10.364Z,253.13
2018-06-10T08:17:10.388Z,253.13
2018-06-10T08:18:10.414Z,247.50
2018-06-10T08:19:10.446Z,247.50
2018-06-10T08:20:10.465Z,230.63
2018-06-10T08:21:10.493Z,225.00
2018-06-10T08:22:10.517Z,236.25
2018-06-10T08:23:10.543Z,241.88
2018-06-10T08:24:10.569Z,241.88
2018-06-10T08:25:10.598Z,247.50
2018-06-10T08:26:10.622Z,230.63
2018-06-10T08:27:10.648Z,213.75
2018-06-10T08:28:10.673Z,202.50
2018-06-10T08:29:10.700Z,196.88
2018-06-10T08:30:10.729Z,208.13
2018-06-10T08:31:10.752Z,213.75
2018-06-10T08:32:10.780Z,213.75
2018-06-10T08:33:10.805Z,213.75
2018-06-10T08:34:10.831Z,208.13
2018-06-10T08:35:10.856Z,196.88
2018-06-10T08:36:10.881Z,185.63
2018-06-10T08:37:10.908Z,174.38
2018-06-10T08:38:10.934Z,180.00
2018-06-10T08:39:10.963Z,185.63
2018-06-10T08:40:10.991Z,185.63
2018-06-10T08:41:11.013Z,185.63
2018-06-10T08:42:11.040Z,180.00
2018-06-10T08:43:11.063Z,168.75
2018-06-10T08:44:11.131Z,163.13
2018-06-10T08:45:11.115Z,157.50
2018-06-10T08:46:11.141Z,146.25
2018-06-10T08:47:11.167Z,135.00
2018-06-10T08:48:11.194Z,135.00
2018-06-10T08:49:11.219Z,140.63
2018-06-10T08:50:11.248Z,157.50
2018-06-10T08:51:11.272Z,168.75
2018-06-10T08:52:11.299Z,174.38
2018-06-10T08:53:11.325Z,180.00
2018-06-10T08:54:11.353Z,180.00
2018-06-10T08:55:11.381Z,180.00
2018-06-10T08:56:11.404Z,174.38
2018-06-10T08:57:11.429Z,168.75
2018-06-10T08:58:11.454Z,168.75
2018-06-10T08:59:11.481Z,163.13
2018-06-10T09:00:11.513Z,163.13
2018-06-10T09:01:11.534Z,146.25
2018-06-10T09:02:11.559Z,140.63
2018-06-10T09:03:11.587Z,146.25
2018-06-10T09:04:11.610Z,157.50
2018-06-10T09:05:11.638Z,163.13
2018-06-10T09:06:11.666Z,174.38
2018-06-10T09:07:11.689Z,191.25
2018-06-10T09:08:11.715Z,196.88
2018-06-10T09:09:11.738Z,202.50
2018-06-10T09:10:11.770Z,213.75
2018-06-10T09:11:11.791Z,230.63
2018-06-10T09:12:11.820Z,241.88
2018-06-10T09:13:11.845Z,236.25
2018-06-10T09:14:11.871Z,230.63
2018-06-10T09:15:11.896Z,236.25
2018-06-10T09:16:11.922Z,230.63
2018-06-10T09:17:11.947Z,230.63
2018-06-10T09:18:11.977Z,236.25
2018-06-10T09:19:11.999Z,236.25
2018-06-10T09:20:12.026Z,219.38
2018-06-10T09:21:12.051Z,208.13
2018-06-10T09:22:12.090Z,185.63
2018-06-10T09:23:12.113Z,185.63
2018-06-10T09:24:12.133Z,196.88
2018-06-10T09:25:12.160Z,213.75
2018-06-10T09:26:12.182Z,219.38
2018-06-10T09:27:12.210Z,236.25
2018-06-10T09:28:12.236Z,253.13
2018-06-10T09:29:12.262Z,253.13
2018-06-10T09:30:12.291Z,241.88
2018-06-10T09:31:12.316Z,219.38
2018-06-10T09:32:12.344Z,225.00
2018-06-10T09:33:12.370Z,225.00
2018-06-10T09:34:12.394Z,230.63
2018-06-10T09:35:12.423Z,208.13
2018-06-10T09:36:12.450Z,247.50
2018-06-10T09:37:12.474Z,264.38
2018-06-10T09:38:12.500Z,230.63
2018-06-10T09:39:12.528Z,202.50
2018-06-10T09:40:12.554Z,196.88
2018-06-10T09:41:12.580Z,236.25
2018-06-10T09:42:12.610Z,230.63
2018-06-10T09:43:12.634Z,241.88
2018-06-10T09:44:12.659Z,270.00
2018-06-10T09:45:12.689Z,298.13
2018-06-10T09:46:12.717Z,315.00
2018-06-10T09:47:12.744Z,309.38
2018-06-10T09:48:12.766Z,281.25
2018-06-10T09:49:12.795Z,202.50
2018-06-10T09:50:12.821Z,185.63
2018-06-10T09:51:12.853Z,174.38
2018-06-10T09:52:12.874Z,168.75
2018-06-10T09:53:12.904Z,174.38
2018-06-10T09:54:12.928Z,174.38
2018-06-10T09:55:13.074Z,174.38
2018-06-10T09:56:12.984Z,168.75
2018-06-10T09:57:13.013Z,163.13
2018-06-10T09:58:13.038Z,174.38
2018-06-10T09:59:13.063Z,196.88
2018-06-10T10:00:13.092Z,208.13
2018-06-10T10:01:13.119Z,258.75
2018-06-10T10:02:13.146Z,258.75
2018-06-10T10:03:13.170Z,264.38
2018-06-10T10:04:13.242Z,264.38
2018-06-10T10:05:13.223Z,258.75
2018-06-10T10:06:13.250Z,253.13
2018-06-10T10:07:13.280Z,270.00
2018-06-10T10:08:13.305Z,230.63
2018-06-10T10:09:13.333Z,208.13
2018-06-10T10:10:13.359Z,202.50
2018-06-10T10:11:13.384Z,202.50
2018-06-10T10:12:13.414Z,196.88
2018-06-10T10:13:13.440Z,202.50
2018-06-10T10:14:13.466Z,213.75
2018-06-10T10:15:13.495Z,219.38
2018-06-10T10:16:13.518Z,208.13
2018-06-10T10:17:13.548Z,219.38
2018-06-10T10:18:13.577Z,225.00
2018-06-10T10:19:13.599Z,230.63
2018-06-10T10:20:13.633Z,219.38
2018-06-10T10:21:13.652Z,208.13
2018-06-10T10:22:13.683Z,230.63
2018-06-10T10:23:13.710Z,230.63
2018-06-10T10:24:13.736Z,236.25
2018-06-10T10:25:13.763Z,270.00
2018-06-10T10:26:13.790Z,241.88
2018-06-10T10:27:13.814Z,230.63
2018-06-10T10:28:13.840Z,219.38
2018-06-10T10:29:13.870Z,213.75
2018-06-10T10:30:13.897Z,202.50
2018-06-10T10:31:13.925Z,191.25
2018-06-10T10:32:13.949Z,225.00
2018-06-10T10:33:13.974Z,213.75
2018-06-10T10:34:14.004Z,208.13
2018-06-10T10:35:14.030Z,213.75
2018-06-10T10:36:14.056Z,219.38
2018-06-10T10:37:14.082Z,236.25
2018-06-10T10:38:14.121Z,236.25
2018-06-10T10:39:14.137Z,230.63
2018-06-10T10:40:14.163Z,225.00
2018-06-10T10:41:14.191Z,230.63
2018-06-10T10:42:14.216Z,219.38
2018-06-10T10:43:14.243Z,219.38
2018-06-10T10:44:14.270Z,219.38
2018-06-10T10:45:14.300Z,213.75
2018-06-10T10:46:14.323Z,219.38
2018-06-10T10:47:14.352Z,219.38
2018-06-10T10:48:14.380Z,230.63
2018-06-10T10:49:14.404Z,236.25
2018-06-10T10:50:14.432Z,236.25
2018-06-10T10:51:14.459Z,258.75
2018-06-10T10:52:14.485Z,281.25
2018-06-10T10:53:14.512Z,292.50
2018-06-10T10:54:14.540Z,270.00
2018-06-10T10:55:14.566Z,275.63
2018-06-10T10:56:14.592Z,241.88
2018-06-10T10:57:14.619Z,208.13
2018-06-10T10:58:14.647Z,174.38
2018-06-10T10:59:14.677Z,174.38
2018-06-10T11:00:14.702Z,208.13
2018-06-10T11:01:14.728Z,208.13
2018-06-10T11:02:14.756Z,202.50
2018-06-10T11:03:14.785Z,180.00
2018-06-10T11:04:14.810Z,202.50
2018-06-10T11:05:14.838Z,196.88
2018-06-10T11:06:14.862Z,191.25
2018-06-10T11:07:14.903Z,163.13
2018-06-10T11:08:14.986Z,191.25
2018-06-10T11:09:14.946Z,191.25
2018-06-10T11:10:14.970Z,185.63
2018-06-10T11:11:14.996Z,213.75
2018-06-10T11:12:15.024Z,185.63
2018-06-10T11:13:15.052Z,196.88
2018-06-10T11:14:15.080Z,213.75
2018-06-10T11:15:15.107Z,219.38
2018-06-10T11:16:15.147Z,196.88
2018-06-10T11:17:15.158Z,180.00
2018-06-10T11:18:15.183Z,168.75
2018-06-10T11:19:15.215Z,174.38
2018-06-10T11:20:15.239Z,180.00
2018-06-10T11:21:15.266Z,208.13
2018-06-10T11:22:15.292Z,225.00
2018-06-10T11:23:15.317Z,236.25
2018-06-10T11:24:15.344Z,230.63
2018-06-10T11:25:15.373Z,241.88
2018-06-10T11:26:15.401Z,247.50
2018-06-10T11:27:15.485Z,230.63
2018-06-10T11:28:15.453Z,219.38
2018-06-10T11:29:15.481Z,219.38
2018-06-10T11:30:15.505Z,219.38
2018-06-10T11:31:15.535Z,213.75
2018-06-10T11:32:15.564Z,219.38
2018-06-10T11:33:15.588Z,241.88
2018-06-10T11:34:15.615Z,270.00
2018-06-10T11:35:15.639Z,258.75
2018-06-10T11:36:15.666Z,253.13
2018-06-10T11:37:15.694Z,219.38
2018-06-10T11:38:15.719Z,213.75
2018-06-10T11:39:15.746Z,213.75
2018-06-10T11:40:15.774Z,191.25
2018-06-10T11:41:15.801Z,191.25
2018-06-10T11:42:15.883Z,196.88
2018-06-10T11:43:15.856Z,202.50
2018-06-10T11:44:15.884Z,213.75
2018-06-10T11:45:15.906Z,247.50
2018-06-10T11:46:15.934Z,275.63
2018-06-10T11:47:15.963Z,281.25
2018-06-10T11:48:15.986Z,275.63
2018-06-10T11:49:16.017Z,253.13
2018-06-10T11:50:16.041Z,258.75
2018-06-10T11:51:16.068Z,275.63
2018-06-10T11:52:16.117Z,286.88
2018-06-10T11:53:16.123Z,270.00
2018-06-10T11:54:16.149Z,264.38
2018-06-10T11:55:16.180Z,270.00
2018-06-10T11:56:16.202Z,281.25
2018-06-10T11:57:16.232Z,281.25
2018-06-10T11:58:16.317Z,286.88
2018-06-10T11:59:16.288Z,275.63
2018-06-10T12:00:16.311Z,270.00
2018-06-10T12:01:16.340Z,286.88
2018-06-10T12:02:16.368Z,286.88
2018-06-10T12:03:16.397Z,275.63
2018-06-10T12:04:16.421Z,270.00
2018-06-10T12:05:16.492Z,264.38
2018-06-10T12:06:16.479Z,253.13
2018-06-10T12:07:16.506Z,230.63
2018-06-10T12:08:16.533Z,225.00
2018-06-10T12:09:16.560Z,236.25
2018-06-10T12:10:16.587Z,241.88
2018-06-10T12:11:16.614Z,253.13
2018-06-10T12:12:16.643Z,230.63
2018-06-10T12:13:16.671Z,219.38
2018-06-10T12:14:16.698Z,208.13
2018-06-10T12:15:16.725Z,208.13
2018-06-10T12:16:16.753Z,230.63
2018-06-10T12:17:16.777Z,258.75
2018-06-10T12:18:16.805Z,253.13
2018-06-10T12:19:16.831Z,253.13
2018-06-10T12:20:16.862Z,253.13
2018-06-10T12:21:16.889Z,253.13
2018-06-10T12:22:16.913Z,219.38
2018-06-10T12:23:16.943Z,213.75
2018-06-10T12:24:16.972Z,219.38
2018-06-10T12:25:16.999Z,225.00
2018-06-10T12:26:17.028Z,230.63
2018-06-10T12:27:17.054Z,225.00
2018-06-10T12:28:17.080Z,219.38
2018-06-10T12:29:17.119Z,236.25
2018-06-10T12:30:17.135Z,241.88
2018-06-10T12:31:17.160Z,225.00
2018-06-10T12:32:17.191Z,208.13
2018-06-10T12:33:17.214Z,202.50
2018-06-10T12:34:17.241Z,213.75
2018-06-10T12:35:17.299Z,230.63
2018-06-10T12:36:17.299Z,230.63
2018-06-10T12:37:17.325Z,241.88
2018-06-10T12:38:17.353Z,230.63
2018-06-10T12:39:17.377Z,258.75
2018-06-10T12:40:17.404Z,270.00
2018-06-10T12:41:17.434Z,281.25
2018-06-10T12:42:17.462Z,270.00
2018-06-10T12:43:17.487Z,225.00
2018-06-10T12:44:17.514Z,213.75
2018-06-10T12:45:17.542Z,213.75
2018-06-10T12:46:17.568Z,213.75
2018-06-10T12:47:17.597Z,213.75
2018-06-10T12:48:17.625Z,219.38
2018-06-10T12:49:17.740Z,230.63
2018-06-10T12:50:17.677Z,230.63